This demonstration page uses our WeatherBlox Daily Observations layout. Learn more.

38.89511, -77.03637

Hourly Observations for October 2, 2018

Temp ( °F °C ) Dew Point ( °F °C ) Humidity (%) Winds ( mph kmh ) Pressure ( in mb ) Visibility ( mi km ) Precip ( " mm )
12:52 am 00:52 Clear 70 21.1 65 18.3 84 84 SSW 8 13 30.23 1024 10 16.0934 0 0
1:52 am 01:52 Mostly Cloudy 69 20.6 64 17.8 84 84 S 6 9 30.22 1024 10 16.0934 0 0
2:52 am 02:52 Mostly Cloudy 68 20 64 17.8 87 87 S 7 11 30.22 1023 10 16.0934 0 0
3:52 am 03:52 Mostly Cloudy 68 20 63 17.2 84 84 SSW 6 9 30.21 1023 10 16.0934 0 0
4:52 am 04:52 Mostly Cloudy 67 19.4 63 17.2 87 87 S 7 11 30.2 1023 10 16.0934 0 0
5:52 am 05:52 Mostly Clear 67 19.4 63 17.2 87 87 SSW 6 9 30.2 1023 10 16.0934 0 0
6:52 am 06:52 Partly Cloudy 67 19.4 63 17.2 87 87 SSW 7 11 30.2 1023 10 16.0934 0 0
7:52 am 07:52 Partly Cloudy 68 20 64 17.8 87 87 S 8 13 30.2 1023 10 16.0934 0 0
8:52 am 08:52 Partly Cloudy 70 21.1 65 18.3 84 84 S 7 11 30.2 1023 10 16.0934 0 0
9:52 am 09:52 Mostly Cloudy 74 23.3 65 18.3 74 74 S 9 15 30.2 1023 10 16.0934 0 0
10:52 am 10:52 Mostly Cloudy 75 23.9 66 18.9 74 74 S 12 19 30.18 1022 10 16.0934 0 0
11:52 am 11:52 Mostly Cloudy 80 26.7 66 18.9 62 62 S 14 22 30.16 1021 10 16.0934 0 0
12:52 pm 12:52 Cloudy 81 27.2 67 19.4 62 62 S 10 17 30.14 1021 10 16.0934 0 0
1:52 pm 13:52 Cloudy 84 28.9 67 19.4 57 57 SSW 13 20 30.11 1020 10 16.0934 0 0
2:52 pm 14:52 Mostly Cloudy 83 28.3 67 19.4 59 59 S 9 15 30.09 1019 10 16.0934 0 0
3:52 pm 15:52 Cloudy 83 28.3 66 18.9 57 57 S 9 15 30.07 1018 10 16.0934 0 0
4:52 pm 16:52 Cloudy 81 27.2 67 19.4 62 62 S 12 19 30.05 1018 10 16.0934 0 0
5:52 pm 17:52 Mostly Cloudy 80 26.7 67 19.4 64 64 S 9 15 30.05 1018 10 16.0934 0 0
6:52 pm 18:52 Mostly Cloudy 76 24.4 67 19.4 74 74 S 9 15 30.05 1018 10 16.0934 0 0
7:52 pm 19:52 Cloudy 75 23.9 67 19.4 76 76 S 8 13 30.05 1018 10 16.0934 0 0
8:52 pm 20:52 Cloudy 74 23.3 67 19.4 79 79 S 9 15 30.05 1018 10 16.0934 0 0
9:52 pm 21:52 Cloudy 73 22.8 67 19.4 81 81 S 12 19 30.04 1017 10 16.0934 0 0
10:52 pm 22:52 Mostly Cloudy 73 22.8 67 19.4 81 81 S 9 15 30.06 1018 10 16.0934 0 0
11:52 pm 23:52 Mostly Cloudy 72 22.2 67 19.4 84 84 S 6 9 30.05 1018 10 16.0934 0 0

Powered by AerisWeather